Time;durP1;ratioP1;P1;durP2;ratioP2;P2;SDS_P1;SDS_P2;PMS_P1;PMS_P2;Temp;Humidity;BMP_temperature;BMP_pressure;BME280_temperature;BME280_humidity;BME280_pressure;Samples;Min_cycle;Max_cycle;Signal;HPM_P1;HPM_P2
2024/01/16 00:00:51;;;;;;;0.70;0.70;;;-0.20;99.90;;;;;;4971435;28;21064;-80
2024/01/16 00:03:17;;;;;;;0.60;0.60;;;-0.10;99.90;;;;;;4968211;28;20428;-79
2024/01/16 00:05:43;;;;;;;0.80;0.80;;;-0.20;99.90;;;;;;4968371;28;20039;-80
2024/01/16 00:08:09;;;;;;;0.70;0.70;;;-0.40;99.90;;;;;;4971495;28;20074;-80
2024/01/16 00:10:34;;;;;;;0.70;0.70;;;0.20;99.90;;;;;;4968991;28;20042;-80
2024/01/16 00:13:01;;;;;;;0.70;0.70;;;-0.40;99.90;;;;;;4967716;28;20047;-78
2024/01/16 00:15:27;;;;;;;0.70;0.70;;;-0.30;99.90;;;;;;4967923;28;20546;-78
2024/01/16 00:17:53;;;;;;;0.70;0.70;;;-0.40;99.90;;;;;;4968958;28;20058;-79
2024/01/16 00:20:19;;;;;;;0.70;0.70;;;-0.40;99.90;;;;;;4954214;28;20101;-78
2024/01/16 00:22:45;;;;;;;0.75;0.75;;;-0.20;99.90;;;;;;4969236;28;20045;-78
2024/01/16 00:25:11;;;;;;;;;;;-0.20;99.90;;;;;;4960089;28;20030;-77
2024/01/16 00:27:37;;;;;;;0.80;0.80;;;0.00;99.90;;;;;;4958624;28;19936;-78
2024/01/16 00:30:03;;;;;;;0.70;0.70;;;-0.20;99.90;;;;;;4958964;28;20142;-78
2024/01/16 00:32:29;;;;;;;;;;;-0.30;99.90;;;;;;4969890;28;20507;-78
2024/01/16 00:34:56;;;;;;;0.80;0.80;;;-0.20;99.90;;;;;;4952321;28;19930;-79
2024/01/16 00:37:22;;;;;;;0.70;0.70;;;0.00;99.90;;;;;;4967006;28;20437;-78
2024/01/16 00:39:47;;;;;;;0.50;0.50;;;-0.30;99.90;;;;;;4969023;28;20038;-78
2024/01/16 00:42:13;;;;;;;0.80;0.80;;;0.00;99.90;;;;;;4968624;28;20046;-77
2024/01/16 00:44:39;;;;;;;0.70;0.70;;;-0.40;99.90;;;;;;4971333;28;20089;-78
2024/01/16 00:47:05;;;;;;;0.60;0.60;;;-0.30;99.90;;;;;;4975174;28;20118;-79
2024/01/16 00:49:31;;;;;;;0.77;0.77;;;-0.20;99.90;;;;;;4967940;28;20411;-79
2024/01/16 00:51:56;;;;;;;0.70;0.70;;;-0.50;99.90;;;;;;4972123;28;20042;-78
2024/01/16 00:54:22;;;;;;;2.50;1.15;;;-0.20;99.90;;;;;;4968903;28;20069;-80
2024/01/16 00:56:48;;;;;;;0.75;0.75;;;0.10;99.90;;;;;;4970333;28;20057;-77
2024/01/16 00:59:14;;;;;;;0.55;0.55;;;0.00;99.90;;;;;;4954568;28;20073;-77
2024/01/16 01:01:40;;;;;;;0.80;0.80;;;-0.10;99.90;;;;;;4969250;28;20050;-80
2024/01/16 01:04:06;;;;;;;0.70;0.70;;;-0.10;99.90;;;;;;4955641;28;20035;-79
2024/01/16 01:06:32;;;;;;;0.80;0.80;;;0.00;99.90;;;;;;4953755;28;20051;-78
2024/01/16 01:09:03;;;;;;;0.68;0.68;;;0.50;99.90;;;;;;4973555;28;20057;-81
2024/01/16 01:11:29;;;;;;;0.70;0.70;;;-0.30;99.90;;;;;;4973310;28;20039;-78
2024/01/16 01:13:55;;;;;;;0.60;0.60;;;0.40;99.90;;;;;;4970952;28;20061;-77
2024/01/16 01:16:21;;;;;;;0.73;0.73;;;0.50;99.90;;;;;;4955950;28;20050;-79
2024/01/16 01:18:47;;;;;;;0.80;0.80;;;-0.40;99.90;;;;;;4955688;28;20132;-79
2024/01/16 01:21:13;;;;;;;0.75;0.75;;;-0.40;99.90;;;;;;4958819;28;20050;-80
2024/01/16 01:23:38;;;;;;;0.77;0.77;;;-0.30;99.90;;;;;;4973208;28;20045;-76
2024/01/16 01:26:04;;;;;;;0.80;0.80;;;-0.50;99.90;;;;;;4977619;28;20097;-81
2024/01/16 01:28:30;;;;;;;0.60;0.60;;;-0.50;99.90;;;;;;4974861;28;20043;-80
2024/01/16 01:30:56;;;;;;;0.60;0.60;;;-0.40;99.90;;;;;;4947195;28;20050;-79
2024/01/16 01:33:22;;;;;;;0.70;0.70;;;-0.20;99.90;;;;;;4957330;28;20105;-80
2024/01/16 01:35:47;;;;;;;0.70;0.70;;;-0.40;99.90;;;;;;4977707;28;20507;-80
2024/01/16 01:38:13;;;;;;;0.70;0.70;;;-0.40;99.90;;;;;;4956512;28;20077;-82
2024/01/16 01:40:39;;;;;;;0.65;0.65;;;-0.40;99.90;;;;;;4975154;28;20567;-76
2024/01/16 01:43:21;;;;;;;0.70;0.70;;;-0.30;99.90;;;;;;4954916;28;20104;-78
2024/01/16 01:45:56;;;;;;;0.60;0.60;;;-0.40;99.90;;;;;;4974724;28;20046;-79
2024/01/16 01:48:22;;;;;;;0.73;0.73;;;-0.30;99.90;;;;;;4978209;28;20054;-80
2024/01/16 01:50:48;;;;;;;0.73;0.73;;;0.00;99.90;;;;;;4979139;28;20118;-80
2024/01/16 01:53:14;;;;;;;0.80;0.80;;;-0.30;99.90;;;;;;4956801;28;20551;-78
2024/01/16 01:55:41;;;;;;;0.80;0.80;;;0.00;99.90;;;;;;4974012;28;20070;-82
2024/01/16 01:58:07;;;;;;;0.80;0.80;;;-0.40;99.90;;;;;;4957378;28;20046;-79
2024/01/16 02:00:34;;;;;;;;;;;0.00;99.90;;;;;;4976451;28;20049;-79
2024/01/16 02:03:00;;;;;;;0.80;0.80;;;-0.60;99.90;;;;;;4977731;28;19992;-80
2024/01/16 02:05:27;;;;;;;0.80;0.80;;;-0.20;99.90;;;;;;4973635;28;20125;-81
2024/01/16 02:07:54;;;;;;;0.75;0.75;;;-0.40;99.90;;;;;;4958823;28;20057;-82
2024/01/16 02:10:20;;;;;;;0.70;0.70;;;-0.30;99.90;;;;;;4976396;28;20484;-80
2024/01/16 02:12:46;;;;;;;;;;;0.00;99.90;;;;;;4962363;28;20055;-82
2024/01/16 02:15:12;;;;;;;0.80;0.80;;;-0.50;99.90;;;;;;4959015;28;19933;-82
2024/01/16 02:17:38;;;;;;;0.80;0.80;;;-0.40;99.90;;;;;;4974967;28;20035;-80
2024/01/16 02:20:05;;;;;;;0.70;0.70;;;-0.30;99.90;;;;;;4963276;28;20054;-81
2024/01/16 02:22:33;;;;;;;0.70;0.70;;;-0.40;99.90;;;;;;4973274;28;20043;-79
2024/01/16 02:24:59;;;;;;;0.80;0.80;;;-0.30;99.90;;;;;;4973642;28;20127;-84
2024/01/16 02:27:24;;;;;;;0.70;0.70;;;0.00;99.90;;;;;;4956762;28;20492;-81
2024/01/16 02:29:50;;;;;;;0.75;0.75;;;0.90;99.90;;;;;;4957455;28;20514;-80
2024/01/16 02:32:16;;;;;;;0.70;0.70;;;-0.20;99.90;;;;;;4961873;28;20043;-82
2024/01/16 02:34:43;;;;;;;0.70;0.70;;;-0.20;99.90;;;;;;4973228;28;20038;-81
2024/01/16 02:37:09;;;;;;;0.75;0.75;;;-0.20;99.90;;;;;;4975982;28;20544;-80
2024/01/16 02:39:35;;;;;;;0.70;0.70;;;-0.30;99.90;;;;;;4970612;28;20129;-81
2024/01/16 02:42:00;;;;;;;0.80;0.80;;;-0.40;99.90;;;;;;4956393;28;20034;-81
2024/01/16 02:44:26;;;;;;;0.70;0.70;;;0.00;99.90;;;;;;4970759;28;20081;-79
2024/01/16 02:46:52;;;;;;;0.70;0.70;;;-0.30;99.90;;;;;;4974206;28;20054;-81
2024/01/16 02:49:18;;;;;;;0.60;0.60;;;-0.20;99.90;;;;;;4970284;28;21497;-81
2024/01/16 02:51:44;;;;;;;0.80;0.80;;;0.60;99.90;;;;;;4972845;28;20053;-82
2024/01/16 02:54:10;;;;;;;0.65;0.65;;;-0.10;99.90;;;;;;4972234;28;20120;-80
2024/01/16 02:56:35;;;;;;;0.70;0.70;;;-0.30;99.90;;;;;;4956761;28;20050;-82
2024/01/16 02:59:01;;;;;;;0.80;0.80;;;0.10;99.90;;;;;;4973924;28;20634;-82
2024/01/16 03:01:27;;;;;;;0.82;0.82;;;-0.10;99.90;;;;;;4974195;28;20046;-80
2024/01/16 03:03:53;;;;;;;0.80;0.80;;;-0.10;99.90;;;;;;4973907;28;20043;-79
2024/01/16 03:06:25;;;;;;;;;;;-0.20;99.90;;;;;;4956452;28;20050;-80
2024/01/16 03:08:51;;;;;;;0.70;0.70;;;-0.40;99.90;;;;;;4955314;28;19922;-82
2024/01/16 03:11:17;;;;;;;0.75;0.75;;;-0.60;99.90;;;;;;4958290;28;20412;-79
2024/01/16 03:13:43;;;;;;;0.70;0.70;;;1.40;99.90;;;;;;4971578;28;20059;-82
2024/01/16 03:16:12;;;;;;;;;;;-0.60;99.90;;;;;;4974765;28;20050;-81
2024/01/16 03:18:38;;;;;;;0.80;0.80;;;-0.60;99.90;;;;;;4975049;28;19921;-82
2024/01/16 03:21:06;;;;;;;0.70;0.70;;;-0.70;99.90;;;;;;4960517;28;20078;-82
2024/01/16 03:23:32;;;;;;;0.70;0.70;;;-0.40;99.90;;;;;;4977991;28;20042;-80
2024/01/16 03:25:58;;;;;;;0.80;0.80;;;-0.90;99.90;;;;;;4971513;28;20109;-81
2024/01/16 03:28:24;;;;;;;0.73;0.73;;;-1.30;99.90;;;;;;4971970;28;20071;-80
2024/01/16 03:30:49;;;;;;;0.80;0.80;;;-1.00;99.90;;;;;;4971674;28;20113;-81
2024/01/16 03:33:15;;;;;;;0.70;0.70;;;-1.10;99.90;;;;;;4974996;28;20042;-80
2024/01/16 03:35:42;;;;;;;0.73;0.73;;;-1.10;99.90;;;;;;4957255;28;20042;-79
2024/01/16 03:38:08;;;;;;;0.70;0.70;;;-1.20;99.90;;;;;;4964080;28;20058;-79
2024/01/16 03:40:34;;;;;;;0.77;0.77;;;-1.10;99.90;;;;;;4974017;28;20384;-82
2024/01/16 03:43:01;;;;;;;0.90;0.90;;;-1.10;99.90;;;;;;4940295;28;20042;-82
2024/01/16 03:45:26;;;;;;;0.70;0.70;;;-1.10;99.90;;;;;;4955804;28;20051;-83
2024/01/16 03:47:52;;;;;;;;;;;-1.00;99.90;;;;;;4973820;28;20042;-81
2024/01/16 03:50:18;;;;;;;0.90;0.90;;;-0.70;99.90;;;;;;4940179;28;20383;-82
2024/01/16 03:52:44;;;;;;;0.70;0.70;;;-0.90;99.90;;;;;;4954575;28;20163;-81
2024/01/16 03:55:10;;;;;;;;;;;-0.80;99.90;;;;;;4955390;28;20038;-81
2024/01/16 03:57:35;;;;;;;0.80;0.80;;;-0.80;99.90;;;;;;4970053;28;20359;-80
2024/01/16 04:00:02;;;;;;;0.80;0.80;;;-0.70;99.90;;;;;;4953065;28;20070;-82
2024/01/16 04:02:27;;;;;;;0.80;0.80;;;-0.50;99.90;;;;;;4969398;28;20077;-80
2024/01/16 04:04:53;;;;;;;0.80;0.80;;;-0.50;99.90;;;;;;4965724;28;20804;-79
2024/01/16 04:07:19;;;;;;;0.73;0.73;;;-0.40;99.90;;;;;;4952561;28;20105;-78
2024/01/16 04:09:45;;;;;;;0.70;0.70;;;-0.30;99.90;;;;;;4952288;28;20042;-80
2024/01/16 04:12:11;;;;;;;0.70;0.70;;;-0.30;99.90;;;;;;4936925;28;20101;-80
2024/01/16 04:14:36;;;;;;;0.80;0.80;;;-0.30;99.90;;;;;;4953367;28;20068;-82
2024/01/16 04:17:02;;;;;;;0.70;0.70;;;-1.10;99.90;;;;;;4964971;28;20121;-80
2024/01/16 04:19:28;;;;;;;2.67;2.55;;;-0.20;99.90;;;;;;4968758;28;20035;-80
2024/01/16 04:21:54;;;;;;;0.70;0.70;;;-0.20;99.90;;;;;;4967929;28;20070;-82
2024/01/16 04:24:19;;;;;;;0.80;0.80;;;-0.10;99.90;;;;;;4966997;28;20055;-80
2024/01/16 04:26:45;;;;;;;0.70;0.70;;;0.10;99.90;;;;;;4950167;28;20480;-81
2024/01/16 04:29:12;;;;;;;0.73;0.73;;;0.40;99.90;;;;;;4970904;28;20520;-82
2024/01/16 04:31:41;;;;;;;0.80;0.80;;;0.00;99.90;;;;;;4952356;28;20097;-81
2024/01/16 04:34:07;;;;;;;0.70;0.70;;;0.00;99.90;;;;;;4968921;28;20097;-81
2024/01/16 04:36:32;;;;;;;0.70;0.70;;;0.00;99.90;;;;;;4970758;28;20388;-81
2024/01/16 04:38:58;;;;;;;0.70;0.70;;;0.10;99.90;;;;;;4953817;28;20038;-79
2024/01/16 04:41:24;;;;;;;0.70;0.70;;;0.10;99.90;;;;;;4969561;28;20086;-81
2024/01/16 04:43:50;;;;;;;0.70;0.70;;;0.20;99.90;;;;;;4954928;28;20039;-80
2024/01/16 04:46:17;;;;;;;0.70;0.70;;;0.20;99.90;;;;;;4970731;28;20514;-81
2024/01/16 04:48:42;;;;;;;0.70;0.70;;;0.20;99.90;;;;;;4958301;28;20088;-81
2024/01/16 04:51:08;;;;;;;0.70;0.70;;;0.20;99.90;;;;;;4969641;28;20035;-80
2024/01/16 04:53:34;;;;;;;0.63;0.63;;;0.10;99.90;;;;;;4974222;28;20078;-83
2024/01/16 04:56:00;;;;;;;0.80;0.80;;;0.30;99.90;;;;;;4951584;28;20444;-80
2024/01/16 04:58:26;;;;;;;0.80;0.80;;;0.10;99.90;;;;;;4967983;28;20086;-80
2024/01/16 05:00:52;;;;;;;0.80;0.80;;;0.20;99.90;;;;;;4974794;28;20050;-79
2024/01/16 05:03:17;;;;;;;0.73;0.73;;;0.10;99.90;;;;;;4974594;28;20084;-79
2024/01/16 05:05:43;;;;;;;0.70;0.70;;;0.10;99.90;;;;;;4974201;28;20505;-81
2024/01/16 05:08:09;;;;;;;0.70;0.70;;;0.10;99.90;;;;;;4967993;28;20487;-81
2024/01/16 05:10:35;;;;;;;0.80;0.80;;;0.00;99.90;;;;;;4956083;28;20088;-80
2024/01/16 05:13:01;;;;;;;0.80;0.80;;;-0.20;99.90;;;;;;4971704;28;20129;-80
2024/01/16 05:15:27;;;;;;;0.77;0.77;;;-0.20;99.90;;;;;;4972562;28;20059;-81
2024/01/16 05:17:56;;;;;;;0.80;0.80;;;-0.20;99.90;;;;;;4972212;28;20047;-80
2024/01/16 05:20:21;;;;;;;0.57;0.57;;;-0.30;99.90;;;;;;4973610;28;20039;-81
2024/01/16 05:22:47;;;;;;;0.70;0.70;;;0.10;99.90;;;;;;4956945;28;20047;-81
2024/01/16 05:25:13;;;;;;;0.80;0.80;;;-0.30;99.90;;;;;;4971183;28;20046;-81
2024/01/16 05:27:39;;;;;;;0.75;0.75;;;-0.30;99.90;;;;;;4975241;28;20153;-80
2024/01/16 05:30:07;;;;;;;3.28;2.97;;;-0.30;99.90;;;;;;4972031;28;20057;-78
2024/01/16 05:32:34;;;;;;;0.65;0.65;;;-0.20;99.90;;;;;;4981942;28;20058;-81
2024/01/16 05:35:00;;;;;;;0.80;0.80;;;-0.20;99.90;;;;;;4954795;28;20138;-79
2024/01/16 05:37:25;;;;;;;0.80;0.80;;;-0.10;99.90;;;;;;4956236;28;20038;-81
2024/01/16 05:39:57;;;;;;;0.70;0.70;;;-0.10;99.90;;;;;;4971482;28;20181;-80
2024/01/16 05:42:23;;;;;;;0.80;0.80;;;0.00;99.90;;;;;;4971849;28;20165;-80
2024/01/16 05:44:49;;;;;;;0.60;0.60;;;0.00;99.90;;;;;;4973823;28;20061;-81
2024/01/16 05:47:14;;;;;;;0.70;0.70;;;0.00;99.90;;;;;;4971070;28;20588;-78
2024/01/16 05:49:41;;;;;;;0.70;0.70;;;0.30;99.90;;;;;;4952331;28;20740;-81
2024/01/16 05:52:07;;;;;;;0.80;0.80;;;0.00;99.90;;;;;;4954433;28;20043;-80
2024/01/16 05:54:34;;;;;;;0.77;0.77;;;0.00;99.90;;;;;;4971050;28;20039;-80
2024/01/16 05:57:00;;;;;;;0.60;0.60;;;-0.10;99.90;;;;;;4953991;28;20035;-81
2024/01/16 05:59:25;;;;;;;0.70;0.70;;;-0.10;99.90;;;;;;4970791;28;20050;-82
2024/01/16 06:01:51;;;;;;;0.80;0.80;;;-0.10;99.90;;;;;;4956252;28;20050;-79
2024/01/16 06:04:18;;;;;;;0.80;0.80;;;-0.10;99.90;;;;;;4970466;28;20051;-79
2024/01/16 06:06:45;;;;;;;0.68;0.68;;;-0.10;99.90;;;;;;4953627;28;20174;-81
2024/01/16 06:09:13;;;;;;;0.70;0.70;;;-0.10;99.90;;;;;;4969746;28;20062;-81
2024/01/16 06:11:40;;;;;;;0.75;0.75;;;-0.10;99.90;;;;;;4972177;28;20043;-81
2024/01/16 06:14:07;;;;;;;0.63;0.63;;;-0.10;99.90;;;;;;4970036;28;20062;-81
2024/01/16 06:16:33;;;;;;;1.90;1.80;;;-0.10;99.90;;;;;;4954748;28;20069;-80
2024/01/16 06:18:59;;;;;;;0.70;0.70;;;-0.10;99.90;;;;;;4970415;28;20117;-82
2024/01/16 06:21:24;;;;;;;0.70;0.70;;;-0.10;99.90;;;;;;4969263;28;20047;-79
2024/01/16 06:23:50;;;;;;;0.70;0.70;;;-0.20;99.90;;;;;;4972335;28;20042;-82
2024/01/16 06:26:17;;;;;;;0.80;0.80;;;-0.20;99.90;;;;;;4953878;28;20125;-79
2024/01/16 06:28:42;;;;;;;;;;;-0.20;99.90;;;;;;4969614;28;20082;-80
2024/01/16 06:31:09;;;;;;;0.93;0.93;;;-0.20;99.90;;;;;;4954820;28;19972;-80
2024/01/16 06:33:35;;;;;;;0.80;0.80;;;-0.20;99.90;;;;;;4952164;28;20047;-79
2024/01/16 06:36:01;;;;;;;;;;;-0.20;99.90;;;;;;4954733;28;20094;-80
2024/01/16 06:38:28;;;;;;;0.77;0.77;;;-0.30;99.90;;;;;;4953404;28;19926;-82
2024/01/16 06:40:54;;;;;;;0.70;0.70;;;0.20;99.90;;;;;;4985691;28;20056;-80
2024/01/16 06:43:20;;;;;;;0.70;0.70;;;-0.30;99.90;;;;;;4969590;28;20046;-78
2024/01/16 06:45:45;;;;;;;0.80;0.80;;;-0.30;99.90;;;;;;4971127;28;20034;-77
2024/01/16 06:48:11;;;;;;;0.77;0.77;;;-0.40;99.90;;;;;;4954606;28;20046;-80
2024/01/16 06:50:37;;;;;;;0.60;0.60;;;-0.30;99.90;;;;;;4969798;28;20043;-79
2024/01/16 06:53:03;;;;;;;0.70;0.70;;;-0.40;99.90;;;;;;4971159;28;20519;-77
2024/01/16 06:55:28;;;;;;;0.70;0.70;;;-0.50;99.90;;;;;;4971217;28;20499;-81
2024/01/16 06:57:54;;;;;;;0.77;0.77;;;-0.50;99.90;;;;;;4971632;28;20061;-79
2024/01/16 07:00:22;;;;;;;0.60;0.60;;;-0.50;99.90;;;;;;4961105;28;20145;-78
2024/01/16 07:02:48;;;;;;;0.75;0.75;;;-0.60;99.90;;;;;;4953934;28;20070;-81
2024/01/16 07:05:14;;;;;;;;;;;-0.50;99.90;;;;;;4970079;28;20034;-80
2024/01/16 07:07:39;;;;;;;0.70;0.70;;;-0.20;99.90;;;;;;4969511;28;19918;-80
2024/01/16 07:10:08;;;;;;;0.77;0.77;;;-0.50;99.90;;;;;;4969433;28;20506;-80
2024/01/16 07:12:34;;;;;;;0.73;0.73;;;-0.50;99.90;;;;;;4969191;28;20046;-81
2024/01/16 07:14:59;;;;;;;0.60;0.60;;;-0.50;99.90;;;;;;4935378;28;20057;-79
2024/01/16 07:17:25;;;;;;;0.60;0.60;;;-0.50;99.90;;;;;;4944955;28;20109;-81
2024/01/16 07:19:51;;;;;;;0.95;0.95;;;-0.40;99.90;;;;;;4970551;28;20054;-81
2024/01/16 07:22:17;;;;;;;;;;;-0.50;99.90;;;;;;4960198;28;20444;-79
2024/01/16 07:24:43;;;;;;;0.70;0.70;;;-0.60;99.90;;;;;;4965660;28;20020;-80
2024/01/16 07:27:08;;;;;;;0.80;0.80;;;-0.20;99.90;;;;;;4968305;28;20051;-78
2024/01/16 07:29:34;;;;;;;0.75;0.75;;;-0.50;99.90;;;;;;4949768;28;20178;-79
2024/01/16 07:32:00;;;;;;;0.73;0.73;;;-0.20;99.90;;;;;;4967908;28;20163;-78
2024/01/16 07:34:25;;;;;;;0.80;0.80;;;-0.50;99.90;;;;;;4971217;28;20041;-82
2024/01/16 07:36:51;;;;;;;0.77;0.77;;;-0.50;99.90;;;;;;4971664;28;20086;-81
2024/01/16 07:39:17;;;;;;;0.73;0.73;;;-0.40;99.90;;;;;;4964136;28;20043;-79
2024/01/16 07:41:43;;;;;;;1.58;1.58;;;0.40;99.90;;;;;;4958200;28;20046;-84
2024/01/16 07:44:08;;;;;;;0.75;0.75;;;-0.40;99.90;;;;;;4974586;28;20038;-78
2024/01/16 07:46:34;;;;;;;0.80;0.80;;;-0.40;99.90;;;;;;4958121;28;20043;-80
2024/01/16 07:49:00;;;;;;;0.70;0.70;;;-0.40;99.90;;;;;;4974180;28;20056;-78
2024/01/16 07:51:26;;;;;;;0.65;0.65;;;-0.30;99.90;;;;;;4969422;28;20043;-80
2024/01/16 07:54:08;;;;;;;0.80;0.80;;;-0.40;99.90;;;;;;4964562;28;20046;-80
2024/01/16 07:56:37;;;;;;;0.80;0.80;;;-0.40;99.90;;;;;;4962673;28;20046;-78
2024/01/16 07:59:03;;;;;;;0.70;0.70;;;-0.40;99.90;;;;;;4965164;28;20046;-79
2024/01/16 08:01:29;;;;;;;;;;;-0.40;99.90;;;;;;4966946;28;20054;-80
2024/01/16 08:03:55;;;;;;;0.70;0.70;;;-0.30;99.90;;;;;;4971398;28;19928;-79
2024/01/16 08:06:22;;;;;;;0.77;0.77;;;-0.30;99.90;;;;;;4971864;28;20039;-81
2024/01/16 08:08:48;;;;;;;0.70;0.70;;;-0.20;99.90;;;;;;4955969;28;20118;-79
2024/01/16 08:11:16;;;;;;;0.70;0.70;;;-0.20;99.90;;;;;;4970244;28;20484;-81
2024/01/16 08:13:41;;;;;;;0.75;0.75;;;-0.10;99.90;;;;;;4970594;28;20555;-79
2024/01/16 08:16:07;;;;;;;0.70;0.70;;;0.10;99.90;;;;;;4937799;28;20047;-82
2024/01/16 08:18:34;;;;;;;0.80;0.80;;;-0.10;99.90;;;;;;4958080;28;20034;-80
2024/01/16 08:21:00;;;;;;;0.60;0.60;;;0.00;99.90;;;;;;4975310;28;20050;-81
2024/01/16 08:23:28;;;;;;;0.70;0.70;;;1.10;99.90;;;;;;4973159;28;20472;-80
2024/01/16 08:25:54;;;;;;;3.05;2.95;;;0.10;99.90;;;;;;4971559;28;20089;-79
2024/01/16 08:28:20;;;;;;;0.70;0.70;;;0.10;99.90;;;;;;4969010;28;20043;-79
2024/01/16 08:30:46;;;;;;;;;;;0.10;99.90;;;;;;4964651;28;20086;-82
2024/01/16 08:33:12;;;;;;;0.80;0.80;;;0.10;99.90;;;;;;4960043;28;19969;-81
2024/01/16 08:35:38;;;;;;;0.70;0.70;;;0.10;99.90;;;;;;4968898;28;20054;-81
2024/01/16 08:38:04;;;;;;;;;;;0.10;99.90;;;;;;4957868;28;20042;-81
2024/01/16 08:40:30;;;;;;;0.52;0.52;;;0.80;99.90;;;;;;4965062;28;20004;-79
2024/01/16 08:42:56;;;;;;;0.70;0.70;;;0.70;99.90;;;;;;4959115;28;20444;-81
2024/01/16 08:45:28;;;;;;;0.70;0.70;;;0.20;99.90;;;;;;4955666;28;20047;-83
2024/01/16 08:47:54;;;;;;;0.77;0.77;;;0.20;99.90;;;;;;4951619;28;20043;-82
2024/01/16 08:50:20;;;;;;;0.73;0.73;;;0.30;99.90;;;;;;4971661;28;20058;-82
2024/01/16 08:52:46;;;;;;;0.63;0.63;;;0.30;99.90;;;;;;4957151;28;20035;-82
2024/01/16 08:55:12;;;;;;;0.80;0.80;;;0.40;99.90;;;;;;4951343;28;20453;-83
2024/01/16 08:57:38;;;;;;;0.70;0.70;;;0.50;99.90;;;;;;4966303;28;20493;-79
2024/01/16 09:00:05;;;;;;;0.80;0.80;;;0.60;99.90;;;;;;4965627;28;20051;-81
2024/01/16 09:02:31;;;;;;;0.70;0.70;;;0.70;99.90;;;;;;4977328;28;20049;-81
2024/01/16 09:04:58;;;;;;;0.70;0.70;;;0.70;99.90;;;;;;4975568;28;20125;-82
2024/01/16 09:07:24;;;;;;;0.70;0.70;;;0.80;99.90;;;;;;4979341;28;20047;-81
2024/01/16 09:09:50;;;;;;;0.63;0.63;;;1.00;99.90;;;;;;4981154;28;20536;-83
2024/01/16 09:12:16;;;;;;;0.63;0.63;;;1.40;99.90;;;;;;4962454;28;20049;-82
2024/01/16 09:14:42;;;;;;;0.60;0.60;;;0.80;99.90;;;;;;4976857;28;20392;-82
2024/01/16 09:17:08;;;;;;;0.70;0.70;;;1.10;99.90;;;;;;4960370;28;20097;-82
2024/01/16 09:19:34;;;;;;;0.70;0.70;;;0.70;99.90;;;;;;4974276;28;20053;-84
2024/01/16 09:21:59;;;;;;;;;;;0.80;99.90;;;;;;4977542;28;20398;-83
2024/01/16 09:24:25;;;;;;;0.80;0.80;;;0.90;99.90;;;;;;4967269;28;19926;-80
2024/01/16 09:26:51;;;;;;;0.70;0.70;;;0.90;99.90;;;;;;4964210;28;20074;-79
2024/01/16 09:29:17;;;;;;;0.60;0.60;;;0.80;99.90;;;;;;4975798;28;20049;-81
2024/01/16 09:31:43;;;;;;;0.70;0.70;;;0.70;99.90;;;;;;4981789;28;20391;-82
2024/01/16 09:34:08;;;;;;;0.80;0.80;;;0.80;99.90;;;;;;4979090;28;20058;-81
2024/01/16 09:36:37;;;;;;;0.60;0.60;;;0.80;99.90;;;;;;4958579;28;20365;-82
2024/01/16 09:39:10;;;;;;;0.73;0.73;;;2.80;99.90;;;;;;4964771;28;20097;-81
2024/01/16 09:41:37;;;;;;;0.80;0.80;;;0.70;99.90;;;;;;4953188;29;20035;-81
2024/01/16 09:44:04;;;;;;;1.63;1.52;;;0.80;99.90;;;;;;4980698;28;20047;-83
2024/01/16 09:46:31;;;;;;;0.65;0.65;;;0.80;99.90;;;;;;4973715;28;20058;-84
2024/01/16 09:49:00;;;;;;;0.63;0.63;;;0.90;99.90;;;;;;4962660;28;20067;-80
2024/01/16 09:51:25;;;;;;;0.68;0.68;;;0.90;99.90;;;;;;4976291;28;20507;-81
2024/01/16 09:53:52;;;;;;;0.70;0.70;;;1.00;99.90;;;;;;4963206;28;20038;-80
2024/01/16 09:56:24;;;;;;;0.68;0.68;;;1.40;99.90;;;;;;4964914;28;20043;-81
2024/01/16 09:58:52;;;;;;;0.70;0.70;;;1.80;99.90;;;;;;4975457;28;20046;-81
2024/01/16 10:01:20;;;;;;;0.70;0.70;;;1.00;99.90;;;;;;4961403;28;20502;-80
2024/01/16 10:03:45;;;;;;;0.60;0.60;;;1.00;99.90;;;;;;4976071;28;20061;-79
2024/01/16 10:06:13;;;;;;;0.50;0.50;;;2.20;99.90;;;;;;4970356;28;20038;-80
2024/01/16 10:08:40;;;;;;;0.50;0.50;;;1.10;99.90;;;;;;4982041;28;20073;-81
2024/01/16 10:11:06;;;;;;;0.65;0.65;;;1.20;99.90;;;;;;4956496;28;20039;-82
2024/01/16 10:13:33;;;;;;;0.63;0.63;;;1.20;99.90;;;;;;4973925;28;20052;-83
2024/01/16 10:15:59;;;;;;;0.73;0.73;;;1.20;99.90;;;;;;4972073;28;20042;-81
2024/01/16 10:18:27;;;;;;;1.27;1.27;;;1.00;99.90;;;;;;4986657;28;20043;-81
2024/01/16 10:20:54;;;;;;;0.50;0.50;;;1.60;99.90;;;;;;4975563;28;20519;-81
2024/01/16 10:23:27;;;;;;;0.60;0.60;;;1.20;99.90;;;;;;4962400;28;20043;-80
2024/01/16 10:26:13;;;;;;;0.70;0.70;;;1.20;99.90;;;;;;4973982;28;20178;-81
2024/01/16 10:28:41;;;;;;;0.75;0.75;;;1.60;99.90;;;;;;4975645;28;20042;-83
2024/01/16 10:31:08;;;;;;;1.10;1.10;;;1.10;99.90;;;;;;4960340;28;20059;-81
2024/01/16 10:33:34;;;;;;;0.70;0.70;;;1.20;99.90;;;;;;4970256;28;20125;-79
2024/01/16 10:36:17;;;;;;;0.70;0.70;;;1.20;99.90;;;;;;4951225;28;20066;-79
2024/01/16 10:38:44;;;;;;;0.68;0.68;;;1.20;99.90;;;;;;4963455;28;20086;-81
2024/01/16 10:41:11;;;;;;;4.68;2.58;;;1.20;99.90;;;;;;4949211;28;20046;-80
2024/01/16 10:43:37;;;;;;;0.60;0.60;;;1.00;99.90;;;;;;4960293;28;20054;-81
2024/01/16 10:46:23;;;;;;;;;;;1.10;99.90;;;;;;4965274;28;20673;-79
2024/01/16 10:49:05;;;;;;;0.70;0.70;;;1.10;99.90;;;;;;4972160;28;19925;-82
2024/01/16 10:51:34;;;;;;;0.77;0.77;;;1.10;99.90;;;;;;4979957;28;20038;-80
2024/01/16 10:54:08;;;;;;;0.70;0.70;;;1.10;99.90;;;;;;4956819;28;20053;-80
2024/01/16 10:56:35;;;;;;;0.68;0.68;;;1.10;99.90;;;;;;4973148;28;20043;-80
2024/01/16 10:59:19;;;;;;;0.90;0.90;;;1.20;99.90;;;;;;4955259;28;20039;-82
2024/01/16 11:01:58;;;;;;;0.70;0.70;;;1.40;99.90;;;;;;4967358;28;20098;-81
2024/01/16 11:04:27;;;;;;;0.70;0.70;;;2.10;99.90;;;;;;4968333;28;20050;-83
2024/01/16 11:06:54;;;;;;;0.60;0.60;;;1.30;99.90;;;;;;4965451;28;20053;-80
2024/01/16 11:09:21;;;;;;;0.73;0.73;;;2.50;99.90;;;;;;4970559;28;20060;-83
2024/01/16 11:11:48;;;;;;;0.68;0.68;;;1.40;99.90;;;;;;4967565;28;20069;-82
2024/01/16 11:14:15;;;;;;;0.60;0.60;;;2.70;99.90;;;;;;4966675;28;20046;-82
2024/01/16 11:16:42;;;;;;;0.50;0.50;;;2.60;99.90;;;;;;4940632;28;20042;-83
2024/01/16 11:19:11;;;;;;;0.68;0.68;;;1.50;99.90;;;;;;4949737;28;20038;-82
2024/01/16 11:21:39;;;;;;;0.70;0.70;;;1.40;99.90;;;;;;4943907;28;20031;-82
2024/01/16 11:24:05;;;;;;;0.80;0.80;;;1.10;99.90;;;;;;4958852;28;20038;-82
2024/01/16 11:26:36;;;;;;;;;;;1.40;99.90;;;;;;4968434;28;20057;-79
2024/01/16 11:29:27;;;;;;;0.70;0.70;;;1.50;99.90;;;;;;4963616;28;19991;-80
2024/01/16 11:31:54;;;;;;;0.60;0.60;;;1.60;99.90;;;;;;4967938;28;20046;-82
2024/01/16 11:34:42;;;;;;;0.70;0.70;;;1.60;99.90;;;;;;4952857;28;20126;-80
2024/01/16 11:37:08;;;;;;;0.65;0.65;;;1.50;99.90;;;;;;4958487;28;20125;-81
2024/01/16 11:39:35;;;;;;;0.60;0.60;;;2.20;99.90;;;;;;4957728;28;20050;-80
2024/01/16 11:42:04;;;;;;;0.50;0.50;;;2.60;99.90;;;;;;4963960;28;20050;-81
2024/01/16 11:44:54;;;;;;;0.70;0.70;;;1.30;99.90;;;;;;4966132;28;20066;-81
2024/01/16 11:47:25;;;;;;;1.20;1.13;;;1.40;99.90;;;;;;4964398;28;20050;-81
2024/01/16 11:50:11;;;;;;;0.70;0.70;;;2.90;99.90;;;;;;4967160;28;20142;-81
2024/01/16 11:52:42;;;;;;;0.70;0.70;;;1.50;99.90;;;;;;4952724;28;20050;-81
2024/01/16 11:55:35;;;;;;;0.70;0.70;;;1.40;99.90;;;;;;4956303;28;20378;-80
2024/01/16 11:58:38;;;;;;;0.63;0.63;;;1.50;99.90;;;;;;4961963;28;20031;-80
2024/01/16 12:01:05;;;;;;;0.65;0.65;;;1.50;99.90;;;;;;4966143;28;20129;-81
2024/01/16 12:03:31;;;;;;;0.70;0.70;;;1.50;99.90;;;;;;4955572;28;20143;-80
2024/01/16 12:06:01;;;;;;;0.70;0.70;;;2.20;99.90;;;;;;4966129;28;20058;-80
2024/01/16 12:08:28;;;;;;;0.65;0.65;;;1.40;99.90;;;;;;4954951;28;20046;-82
2024/01/16 12:10:54;;;;;;;1.10;1.10;;;1.50;99.90;;;;;;4951646;28;20133;-81
2024/01/16 12:13:21;;;;;;;0.60;0.60;;;2.20;99.90;;;;;;4953389;28;20058;-82
2024/01/16 12:15:47;;;;;;;;;;;2.20;99.90;;;;;;4961230;28;20129;-82
2024/01/16 12:18:18;;;;;;;0.70;0.70;;;1.40;99.90;;;;;;4943666;28;20010;-82
2024/01/16 12:20:44;;;;;;;0.70;0.70;;;1.40;99.90;;;;;;4963843;28;20402;-83
2024/01/16 12:23:10;;;;;;;0.80;0.80;;;1.40;99.90;;;;;;4959758;28;20039;-83
2024/01/16 12:25:37;;;;;;;0.70;0.70;;;1.80;99.90;;;;;;4953446;28;20051;-82
2024/01/16 12:28:10;;;;;;;0.60;0.60;;;1.30;99.90;;;;;;4972949;28;20369;-82
2024/01/16 12:30:37;;;;;;;0.70;0.70;;;1.30;99.90;;;;;;4957585;28;20039;-81
2024/01/16 12:33:04;;;;;;;0.70;0.70;;;1.20;99.90;;;;;;4949932;28;20030;-82
2024/01/16 12:35:30;;;;;;;0.60;0.60;;;1.20;99.90;;;;;;4955589;28;20166;-81
2024/01/16 12:38:03;;;;;;;;;;;1.10;99.90;;;;;;4972248;28;20031;-81
2024/01/16 12:40:29;;;;;;;0.60;0.60;;;1.20;99.90;;;;;;4952918;28;19925;-82
2024/01/16 12:42:55;;;;;;;0.90;0.90;;;0.90;99.90;;;;;;4975355;28;20047;-82
2024/01/16 12:45:23;;;;;;;0.70;0.70;;;1.90;99.90;;;;;;4961746;28;20046;-81
2024/01/16 12:47:53;;;;;;;0.70;0.70;;;1.90;99.90;;;;;;4955923;28;20044;-82
2024/01/16 12:50:27;;;;;;;0.60;0.60;;;1.10;99.90;;;;;;4971011;28;20098;-82
2024/01/16 12:53:10;;;;;;;0.60;0.60;;;1.10;99.90;;;;;;4972615;28;20127;-82
2024/01/16 12:55:37;;;;;;;0.60;0.60;;;1.10;99.90;;;;;;4954646;28;20039;-81
2024/01/16 12:58:19;;;;;;;0.70;0.70;;;1.10;99.90;;;;;;4973787;28;20047;-82